createdAt,value
2023-03-10T00:01:15.806Z,11.00
2023-03-10T00:03:43.917Z,11.00
2023-03-10T00:06:14.860Z,11.00
2023-03-10T00:08:42.624Z,10.90
2023-03-10T00:11:10.514Z,10.90
2023-03-10T00:13:38.103Z,10.80
2023-03-10T00:16:07.000Z,10.80
2023-03-10T00:18:34.678Z,10.90
2023-03-10T00:21:03.476Z,10.80
2023-03-10T00:23:31.242Z,10.70
2023-03-10T00:26:01.186Z,10.70
2023-03-10T00:28:28.796Z,10.70
2023-03-10T00:31:05.551Z,10.70
2023-03-10T00:33:34.893Z,10.70
2023-03-10T00:36:27.256Z,10.60
2023-03-10T00:38:56.322Z,10.60
2023-03-10T00:41:27.502Z,10.60
2023-03-10T00:43:54.626Z,10.70
2023-03-10T00:46:21.833Z,10.60
2023-03-10T00:48:49.203Z,10.60
2023-03-10T00:51:16.991Z,10.70
2023-03-10T00:53:44.978Z,10.60
2023-03-10T00:56:19.105Z,10.60
2023-03-10T00:58:50.190Z,10.50
2023-03-10T01:01:50.144Z,10.60
2023-03-10T01:04:19.392Z,10.60
2023-03-10T01:06:47.838Z,10.60
2023-03-10T01:09:15.787Z,10.60
2023-03-10T01:11:43.153Z,10.60
2023-03-10T01:14:17.588Z,10.60
2023-03-10T01:16:44.837Z,10.50
2023-03-10T01:19:11.940Z,10.50
2023-03-10T01:21:40.077Z,10.50
2023-03-10T01:24:08.188Z,10.60
2023-03-10T01:26:35.785Z,10.60
2023-03-10T01:29:02.981Z,10.60
2023-03-10T01:31:30.130Z,10.60
2023-03-10T01:33:57.483Z,10.50
2023-03-10T01:36:27.008Z,10.50
2023-03-10T01:38:55.902Z,10.50
2023-03-10T01:41:24.789Z,10.60
2023-03-10T01:43:55.655Z,10.50
2023-03-10T01:46:45.899Z,10.50
2023-03-10T01:49:29.800Z,10.40
2023-03-10T01:52:16.606Z,10.40
2023-03-10T01:55:06.836Z,10.20
2023-03-10T01:57:46.270Z,10.00
2023-03-10T02:00:16.283Z,9.90
2023-03-10T02:02:55.272Z,9.80
2023-03-10T02:05:23.173Z,9.70
2023-03-10T02:07:50.968Z,9.60
2023-03-10T02:10:18.310Z,9.70
2023-03-10T02:12:45.600Z,9.70
2023-03-10T02:15:13.567Z,9.60
2023-03-10T02:17:41.413Z,9.60
2023-03-10T02:21:05.386Z,9.60
2023-03-10T02:24:18.269Z,9.70
2023-03-10T02:26:55.175Z,9.60
2023-03-10T02:30:11.774Z,9.50
2023-03-10T02:32:47.148Z,9.50
2023-03-10T02:35:14.355Z,9.40
2023-03-10T02:37:41.681Z,9.40
2023-03-10T02:40:38.181Z,9.50
2023-03-10T02:43:14.293Z,9.50
2023-03-10T02:45:43.960Z,9.50
2023-03-10T02:48:15.030Z,9.40
2023-03-10T02:50:44.766Z,9.40
2023-03-10T02:53:17.962Z,9.40
2023-03-10T02:55:45.241Z,9.40
2023-03-10T02:58:12.560Z,9.40
2023-03-10T03:00:42.296Z,9.40
2023-03-10T03:03:12.579Z,9.30
2023-03-10T03:05:40.269Z,9.40
2023-03-10T03:08:10.119Z,9.30
2023-03-10T03:10:38.529Z,9.30
2023-03-10T03:13:06.484Z,9.30
2023-03-10T03:15:33.986Z,9.30
2023-03-10T03:18:01.715Z,9.30
2023-03-10T03:20:30.804Z,9.30
2023-03-10T03:22:59.193Z,9.30
2023-03-10T03:25:29.100Z,9.40
2023-03-10T03:27:56.970Z,9.40
2023-03-10T03:30:27.869Z,9.40
2023-03-10T03:32:55.995Z,9.40
2023-03-10T03:35:28.468Z,9.40
2023-03-10T03:37:56.661Z,9.40
2023-03-10T03:40:26.266Z,9.40
2023-03-10T03:42:54.639Z,9.40
2023-03-10T03:45:25.563Z,9.40
2023-03-10T03:47:53.032Z,9.30
2023-03-10T03:50:21.832Z,9.30
2023-03-10T03:52:49.956Z,9.30
2023-03-10T03:55:18.796Z,9.30
2023-03-10T03:57:46.758Z,9.30
2023-03-10T04:00:22.715Z,9.30
2023-03-10T04:02:51.149Z,9.20
2023-03-10T04:05:43.728Z,9.20
2023-03-10T04:08:12.340Z,9.20
2023-03-10T04:10:39.606Z,9.20
2023-03-10T04:13:06.944Z,9.20
2023-03-10T04:15:34.260Z,9.20
2023-03-10T04:18:01.478Z,9.20
2023-03-10T04:20:28.642Z,9.10
2023-03-10T04:22:55.750Z,9.10
2023-03-10T04:25:22.865Z,9.10
2023-03-10T04:27:49.982Z,9.20
2023-03-10T04:30:17.148Z,9.10
2023-03-10T04:32:44.634Z,9.00
2023-03-10T04:35:14.296Z,9.00
2023-03-10T04:37:41.750Z,9.00
2023-03-10T04:40:13.572Z,8.90
2023-03-10T04:42:41.189Z,8.90
2023-03-10T04:45:09.133Z,9.00
2023-03-10T04:47:36.339Z,9.00
2023-03-10T04:50:05.174Z,8.90
2023-03-10T04:52:32.288Z,8.90
2023-03-10T04:54:59.359Z,8.90
2023-03-10T04:57:26.589Z,8.80
2023-03-10T04:59:53.847Z,8.90
2023-03-10T05:02:20.940Z,8.90
2023-03-10T05:04:48.260Z,8.80
2023-03-10T05:07:15.367Z,8.80
2023-03-10T05:09:42.760Z,8.80
2023-03-10T05:12:11.398Z,8.80
2023-03-10T05:14:38.524Z,8.90
2023-03-10T05:17:05.770Z,8.90
2023-03-10T05:19:35.322Z,8.90
2023-03-10T05:22:03.953Z,8.90
2023-03-10T05:24:31.413Z,9.00
2023-03-10T05:26:58.651Z,9.00
2023-03-10T05:29:25.744Z,9.10
2023-03-10T05:31:52.870Z,9.00
2023-03-10T05:34:20.192Z,9.10
2023-03-10T05:36:47.251Z,9.10
2023-03-10T05:39:14.396Z,9.10
2023-03-10T05:41:41.561Z,9.20
2023-03-10T05:44:09.229Z,9.20
2023-03-10T05:46:36.443Z,9.20
2023-03-10T05:49:03.766Z,9.20
2023-03-10T05:51:31.012Z,9.30
2023-03-10T05:53:58.150Z,9.30
2023-03-10T05:56:25.348Z,9.40
2023-03-10T05:58:52.464Z,9.40
2023-03-10T06:01:19.842Z,9.40
2023-03-10T06:03:47.057Z,9.40
2023-03-10T06:06:14.242Z,9.50
2023-03-10T06:08:43.101Z,9.40
2023-03-10T06:11:10.626Z,9.40
2023-03-10T06:13:38.080Z,9.40
2023-03-10T06:16:07.563Z,9.50
2023-03-10T06:18:35.211Z,9.50
2023-03-10T06:21:07.149Z,9.50
2023-03-10T06:23:34.953Z,9.60
2023-03-10T06:26:06.887Z,9.50
2023-03-10T06:28:37.243Z,9.50
2023-03-10T06:31:08.419Z,9.60
2023-03-10T06:33:36.294Z,9.60
2023-03-10T06:36:03.755Z,9.60
2023-03-10T06:38:31.010Z,9.60
2023-03-10T06:40:58.803Z,9.60
2023-03-10T06:43:26.281Z,9.60
2023-03-10T06:45:53.416Z,9.60
2023-03-10T06:48:20.492Z,9.60
2023-03-10T06:50:50.243Z,9.60
2023-03-10T06:53:20.344Z,9.60
2023-03-10T06:56:06.945Z,9.70
2023-03-10T06:58:36.360Z,9.70
2023-03-10T07:01:05.450Z,9.80
2023-03-10T07:03:32.589Z,9.80
2023-03-10T07:06:00.141Z,9.90
2023-03-10T07:08:28.778Z,9.80
2023-03-10T07:10:57.194Z,10.00
2023-03-10T07:13:24.422Z,10.00
2023-03-10T07:15:51.615Z,10.20
2023-03-10T07:18:19.268Z,10.30
2023-03-10T07:20:46.663Z,10.40
2023-03-10T07:23:14.273Z,10.40
2023-03-10T07:25:41.725Z,10.50
2023-03-10T07:28:08.920Z,10.60
2023-03-10T07:30:37.772Z,10.70
2023-03-10T07:33:05.273Z,10.80
2023-03-10T07:35:34.732Z,10.80
2023-03-10T07:38:03.376Z,10.80
2023-03-10T07:40:30.681Z,10.70
2023-03-10T07:42:57.760Z,10.60
2023-03-10T07:45:26.699Z,10.40
2023-03-10T07:47:54.682Z,10.30
2023-03-10T07:50:22.628Z,10.30
2023-03-10T07:52:53.208Z,10.20
2023-03-10T07:55:20.346Z,10.20
2023-03-10T07:57:47.495Z,10.20
2023-03-10T08:00:15.672Z,10.20
2023-03-10T08:02:43.199Z,10.30
2023-03-10T08:05:11.707Z,10.30
2023-03-10T08:07:39.126Z,10.20
2023-03-10T08:10:07.930Z,10.10
2023-03-10T08:12:35.653Z,10.00
2023-03-10T08:15:02.980Z,9.90
2023-03-10T08:17:33.654Z,10.00
2023-03-10T08:20:01.329Z,10.00
2023-03-10T08:22:28.952Z,9.90
2023-03-10T08:24:56.464Z,9.80
2023-03-10T08:27:23.927Z,9.50
2023-03-10T08:29:51.037Z,9.30
2023-03-10T08:32:19.960Z,9.00
2023-03-10T08:34:47.337Z,8.70
2023-03-10T08:37:14.826Z,8.50
2023-03-10T08:39:42.124Z,8.30
2023-03-10T08:42:12.439Z,8.30
2023-03-10T08:44:40.620Z,8.20
2023-03-10T08:47:08.210Z,8.30
2023-03-10T08:49:35.631Z,8.10
2023-03-10T08:52:03.808Z,8.20
2023-03-10T08:54:32.624Z,8.10
2023-03-10T08:57:00.855Z,8.20
2023-03-10T08:59:28.113Z,8.20
2023-03-10T09:01:55.257Z,8.20
2023-03-10T09:04:22.486Z,8.30
2023-03-10T09:06:49.893Z,8.40
2023-03-10T09:09:17.091Z,8.40
2023-03-10T09:11:47.234Z,8.40
2023-03-10T09:14:17.525Z,8.40
2023-03-10T09:16:45.108Z,8.50
2023-03-10T09:19:12.537Z,8.60
2023-03-10T09:21:40.118Z,8.70
2023-03-10T09:24:07.477Z,8.90
2023-03-10T09:26:34.738Z,9.20
2023-03-10T09:29:02.677Z,9.40
2023-03-10T09:31:33.531Z,9.50
2023-03-10T09:34:01.543Z,9.40
2023-03-10T09:36:29.834Z,9.30
2023-03-10T09:39:01.136Z,9.30
2023-03-10T09:42:06.592Z,9.40
2023-03-10T09:44:46.251Z,9.20
2023-03-10T09:47:43.190Z,9.10
2023-03-10T09:50:16.098Z,9.10
2023-03-10T09:53:30.076Z,9.10
2023-03-10T09:55:57.999Z,8.90
2023-03-10T09:58:34.730Z,8.90
2023-03-10T10:01:03.696Z,8.90
2023-03-10T10:03:52.748Z,8.80
2023-03-10T10:06:29.116Z,8.70
2023-03-10T10:09:04.965Z,8.60
2023-03-10T10:11:35.036Z,8.50
2023-03-10T10:14:31.839Z,8.40
2023-03-10T10:17:26.268Z,8.30
2023-03-10T10:19:53.879Z,8.30
2023-03-10T10:22:37.939Z,8.30
2023-03-10T10:25:31.498Z,8.30
2023-03-10T10:28:01.502Z,8.30
2023-03-10T10:30:40.500Z,8.30
2023-03-10T10:33:13.735Z,8.30
2023-03-10T10:36:05.909Z,8.40
2023-03-10T10:38:33.112Z,8.50
2023-03-10T10:41:08.222Z,8.60
2023-03-10T10:43:44.707Z,8.60
2023-03-10T10:46:15.526Z,8.70
2023-03-10T10:48:43.622Z,8.80
2023-03-10T10:51:29.211Z,8.80
2023-03-10T10:54:28.484Z,8.90
2023-03-10T10:56:59.127Z,9.00
2023-03-10T10:59:35.133Z,9.00
2023-03-10T11:02:23.524Z,9.00
2023-03-10T11:04:50.729Z,9.00
2023-03-10T11:07:25.260Z,9.00
2023-03-10T11:09:52.652Z,8.90
2023-03-10T11:12:33.074Z,8.90
2023-03-10T11:15:36.981Z,8.90
2023-03-10T11:18:20.278Z,8.90
2023-03-10T11:21:07.196Z,8.90
2023-03-10T11:23:42.618Z,8.90
2023-03-10T11:26:34.448Z,8.80
2023-03-10T11:29:30.547Z,8.90
2023-03-10T11:32:00.563Z,9.00
2023-03-10T11:34:32.413Z,9.00
2023-03-10T11:37:41.953Z,9.10
2023-03-10T11:40:41.759Z,9.10
2023-03-10T11:43:46.291Z,9.10
2023-03-10T11:46:36.956Z,9.00
2023-03-10T11:49:15.355Z,9.00
2023-03-10T11:51:50.335Z,8.90
2023-03-10T11:54:35.633Z,8.90
2023-03-10T11:57:13.141Z,8.80
2023-03-10T12:00:05.632Z,8.70
2023-03-10T12:03:17.393Z,8.70
2023-03-10T12:06:00.388Z,8.70
2023-03-10T12:08:34.882Z,8.60
2023-03-10T12:11:05.370Z,8.50
2023-03-10T12:13:46.843Z,8.60
2023-03-10T12:16:23.100Z,8.60
2023-03-10T12:18:50.574Z,8.60
2023-03-10T12:21:31.168Z,8.50
2023-03-10T12:24:04.262Z,8.50
2023-03-10T12:26:40.996Z,8.50
2023-03-10T12:29:37.062Z,8.50
2023-03-10T12:32:05.166Z,8.30
2023-03-10T12:34:33.107Z,8.30
2023-03-10T12:37:08.544Z,8.20
2023-03-10T12:39:46.055Z,8.20
2023-03-10T12:42:33.067Z,8.10
2023-03-10T12:45:09.451Z,8.10
2023-03-10T12:47:49.343Z,8.10
2023-03-10T12:50:53.030Z,8.00
2023-03-10T12:53:58.603Z,8.00
2023-03-10T12:56:40.862Z,8.00
2023-03-10T12:59:23.497Z,8.10
2023-03-10T13:01:55.955Z,8.10
2023-03-10T13:04:25.223Z,8.10
2023-03-10T13:06:57.697Z,8.10
2023-03-10T13:09:38.573Z,8.10
2023-03-10T13:12:37.990Z,8.10
2023-03-10T13:15:08.383Z,8.10
2023-03-10T13:17:35.580Z,8.10
2023-03-10T13:20:15.104Z,8.10
2023-03-10T13:22:57.544Z,8.10
2023-03-10T13:25:26.128Z,8.10
2023-03-10T13:27:54.669Z,8.00
2023-03-10T13:30:27.450Z,8.00
2023-03-10T13:33:05.226Z,8.00
2023-03-10T13:35:37.425Z,8.00
2023-03-10T13:38:17.218Z,7.90
2023-03-10T13:40:58.501Z,8.00
2023-03-10T13:43:27.982Z,7.90
2023-03-10T13:46:00.163Z,7.90
2023-03-10T13:48:29.227Z,7.90
2023-03-10T13:51:25.465Z,7.90
2023-03-10T13:53:57.952Z,7.90
2023-03-10T13:56:32.793Z,8.00
2023-03-10T13:59:02.930Z,8.00
2023-03-10T14:01:36.631Z,8.00
2023-03-10T14:04:08.977Z,8.00
2023-03-10T14:06:37.220Z,8.00
2023-03-10T14:09:22.565Z,8.10
2023-03-10T14:11:50.958Z,8.10
2023-03-10T14:14:34.590Z,8.10
2023-03-10T14:17:07.106Z,8.00
2023-03-10T14:19:43.404Z,8.00
2023-03-10T14:22:37.944Z,8.00
2023-03-10T14:25:18.323Z,8.00
2023-03-10T14:28:13.077Z,8.00
2023-03-10T14:30:43.965Z,7.90
2023-03-10T14:33:16.781Z,7.90
2023-03-10T14:35:46.136Z,8.00
2023-03-10T14:38:13.623Z,7.90
2023-03-10T14:41:01.068Z,7.90
2023-03-10T14:43:28.913Z,8.00
2023-03-10T14:46:00.295Z,8.00
2023-03-10T14:48:31.181Z,8.10
2023-03-10T14:50:58.422Z,8.00
2023-03-10T14:53:27.674Z,8.10
2023-03-10T14:55:57.311Z,8.10
2023-03-10T14:58:48.492Z,7.90
2023-03-10T15:01:19.110Z,8.00
2023-03-10T15:03:47.086Z,8.00
2023-03-10T15:06:15.898Z,8.00
2023-03-10T15:08:43.126Z,8.00
2023-03-10T15:11:10.440Z,8.00
2023-03-10T15:13:39.209Z,7.90
2023-03-10T15:16:07.116Z,7.80
2023-03-10T15:18:36.857Z,7.70
2023-03-10T15:21:04.161Z,7.70
2023-03-10T15:23:31.522Z,7.70
2023-03-10T15:25:59.337Z,7.70
2023-03-10T15:28:26.576Z,7.70
2023-03-10T15:30:54.887Z,7.70
2023-03-10T15:33:22.109Z,7.60
2023-03-10T15:35:50.135Z,7.60
2023-03-10T15:38:17.541Z,7.60
2023-03-10T15:40:44.723Z,7.60
2023-03-10T15:43:11.917Z,7.60
2023-03-10T15:45:42.968Z,7.50
2023-03-10T15:48:10.958Z,7.50
2023-03-10T15:50:42.152Z,7.40
2023-03-10T15:53:09.479Z,7.50
2023-03-10T15:55:43.234Z,7.40
2023-03-10T15:58:11.556Z,7.40
2023-03-10T16:00:39.526Z,7.50
2023-03-10T16:03:07.574Z,7.30
2023-03-10T16:05:35.509Z,7.30
2023-03-10T16:08:06.244Z,7.20
2023-03-10T16:10:38.325Z,7.20
2023-03-10T16:13:05.456Z,7.10
2023-03-10T16:15:32.682Z,7.10
2023-03-10T16:18:01.621Z,7.10
2023-03-10T16:20:28.704Z,7.20
2023-03-10T16:22:56.238Z,7.10
2023-03-10T16:25:23.455Z,7.10
2023-03-10T16:27:50.766Z,7.10
2023-03-10T16:30:19.756Z,7.00
2023-03-10T16:32:51.798Z,7.10
2023-03-10T16:35:19.159Z,7.10
2023-03-10T16:37:46.447Z,7.20
2023-03-10T16:40:14.042Z,7.20
2023-03-10T16:42:45.502Z,7.20
2023-03-10T16:45:13.474Z,7.10
2023-03-10T16:47:42.261Z,7.20
2023-03-10T16:50:12.770Z,7.20
2023-03-10T16:52:42.763Z,7.20
2023-03-10T16:55:18.366Z,7.30
2023-03-10T16:57:46.100Z,7.30
2023-03-10T17:00:14.397Z,7.20
2023-03-10T17:02:41.525Z,7.20
2023-03-10T17:05:10.140Z,7.10
2023-03-10T17:07:46.466Z,7.10
2023-03-10T17:10:17.078Z,7.00
2023-03-10T17:12:44.174Z,7.00
2023-03-10T17:15:11.930Z,7.00
2023-03-10T17:17:39.252Z,6.90
2023-03-10T17:20:07.341Z,6.90
2023-03-10T17:22:35.364Z,6.90
2023-03-10T17:25:04.429Z,6.90
2023-03-10T17:27:32.080Z,6.80
2023-03-10T17:29:59.164Z,6.70
2023-03-10T17:32:27.759Z,6.70
2023-03-10T17:34:54.905Z,6.70
2023-03-10T17:37:22.010Z,6.70
2023-03-10T17:39:49.189Z,6.60
2023-03-10T17:42:16.996Z,6.60
2023-03-10T17:44:46.767Z,6.70
2023-03-10T17:47:14.194Z,6.70
2023-03-10T17:49:41.374Z,6.70
2023-03-10T17:52:08.620Z,6.70
2023-03-10T17:54:35.878Z,6.60
2023-03-10T17:57:03.095Z,6.70
2023-03-10T17:59:31.964Z,6.60
2023-03-10T18:02:00.755Z,6.60
2023-03-10T18:04:29.801Z,6.60
2023-03-10T18:06:57.049Z,6.50
2023-03-10T18:09:24.161Z,6.50
2023-03-10T18:11:51.541Z,6.40
2023-03-10T18:14:18.710Z,6.40
2023-03-10T18:16:45.846Z,6.40
2023-03-10T18:19:14.074Z,6.40
2023-03-10T18:21:41.597Z,6.30
2023-03-10T18:24:13.627Z,6.30
2023-03-10T18:26:43.838Z,6.20
2023-03-10T18:29:13.225Z,6.20
2023-03-10T18:31:40.884Z,6.20
2023-03-10T18:34:10.325Z,6.10
2023-03-10T18:36:37.604Z,6.20
2023-03-10T18:39:07.357Z,6.20
2023-03-10T18:41:35.448Z,6.20
2023-03-10T18:44:02.623Z,6.10
2023-03-10T18:46:29.914Z,6.10
2023-03-10T18:48:57.510Z,6.10
2023-03-10T18:51:28.201Z,6.00
2023-03-10T18:53:55.445Z,5.90
2023-03-10T18:56:26.125Z,5.80
2023-03-10T18:58:53.720Z,5.60
2023-03-10T19:01:21.612Z,5.30
2023-03-10T19:03:48.980Z,5.00
2023-03-10T19:06:16.111Z,4.60
2023-03-10T19:08:44.215Z,4.30
2023-03-10T19:11:12.083Z,4.20
2023-03-10T19:13:43.682Z,4.10
2023-03-10T19:16:11.778Z,3.80
2023-03-10T19:18:39.653Z,3.70
2023-03-10T19:21:07.116Z,3.70
2023-03-10T19:23:35.058Z,3.60
2023-03-10T19:26:03.683Z,3.60
2023-03-10T19:28:31.570Z,3.60
2023-03-10T19:30:59.269Z,3.50
2023-03-10T19:33:26.601Z,3.50
2023-03-10T19:36:05.460Z,3.40
2023-03-10T19:38:35.715Z,3.40
2023-03-10T19:41:04.823Z,3.40
2023-03-10T19:43:32.802Z,3.30
2023-03-10T19:46:05.568Z,3.30
2023-03-10T19:48:33.025Z,3.30
2023-03-10T19:51:00.854Z,3.30
2023-03-10T19:53:29.589Z,3.30
2023-03-10T19:56:01.019Z,3.30
2023-03-10T19:58:29.299Z,3.30
2023-03-10T20:01:00.364Z,3.20
2023-03-10T20:03:31.265Z,3.20
2023-03-10T20:05:58.827Z,3.20
2023-03-10T20:08:26.566Z,3.10
2023-03-10T20:10:53.927Z,3.10
2023-03-10T20:13:21.289Z,3.10
2023-03-10T20:15:48.593Z,3.00
2023-03-10T20:18:21.743Z,3.00
2023-03-10T20:20:49.629Z,3.00
2023-03-10T20:23:19.512Z,3.00
2023-03-10T20:25:46.806Z,2.90
2023-03-10T20:28:15.376Z,2.90
2023-03-10T20:30:42.925Z,3.00
2023-03-10T20:33:10.239Z,2.90
2023-03-10T20:35:38.531Z,2.80
2023-03-10T20:38:05.787Z,2.80
2023-03-10T20:40:32.887Z,2.80
2023-03-10T20:42:59.960Z,2.80
2023-03-10T20:45:28.115Z,2.80
2023-03-10T20:47:57.680Z,2.80
2023-03-10T20:50:25.034Z,2.80
2023-03-10T20:52:52.927Z,2.80
2023-03-10T20:55:29.671Z,2.80
2023-03-10T20:57:59.380Z,2.90
2023-03-10T21:00:29.448Z,2.80
2023-03-10T21:02:57.785Z,2.80
2023-03-10T21:05:27.998Z,2.80
2023-03-10T21:07:55.683Z,2.80
2023-03-10T21:10:26.627Z,2.80
2023-03-10T21:12:54.426Z,2.80
2023-03-10T21:15:23.820Z,2.80
2023-03-10T21:17:51.163Z,2.80
2023-03-10T21:20:24.362Z,2.70
2023-03-10T21:22:52.712Z,2.80
2023-03-10T21:25:24.152Z,2.80
2023-03-10T21:27:58.737Z,2.80
2023-03-10T21:30:29.333Z,2.70
2023-03-10T21:32:57.834Z,2.70
2023-03-10T21:35:30.568Z,2.70
2023-03-10T21:37:59.423Z,2.60
2023-03-10T21:40:28.981Z,2.60
2023-03-10T21:42:56.161Z,2.60
2023-03-10T21:45:25.643Z,2.70
2023-03-10T21:47:52.825Z,2.60
2023-03-10T21:50:20.263Z,2.60
2023-03-10T21:52:48.247Z,2.60
2023-03-10T21:55:25.149Z,2.60
2023-03-10T21:57:52.848Z,2.70
2023-03-10T22:00:23.226Z,2.60
2023-03-10T22:02:53.915Z,2.60
2023-03-10T22:05:23.964Z,2.60
2023-03-10T22:07:51.200Z,2.60
2023-03-10T22:10:19.022Z,2.50
2023-03-10T22:12:46.381Z,2.50
2023-03-10T22:15:19.360Z,2.50
2023-03-10T22:17:46.784Z,2.50
2023-03-10T22:20:23.855Z,2.50
2023-03-10T22:22:51.870Z,2.50
2023-03-10T22:25:19.861Z,2.50
2023-03-10T22:27:54.466Z,2.50
2023-03-10T22:30:25.447Z,2.50
2023-03-10T22:32:54.734Z,2.50
2023-03-10T22:35:22.861Z,2.50
2023-03-10T22:37:51.533Z,2.50
2023-03-10T22:40:22.847Z,2.50
2023-03-10T22:42:51.309Z,2.50
2023-03-10T22:45:28.617Z,2.50
2023-03-10T22:48:00.573Z,2.50
2023-03-10T22:50:32.661Z,2.50
2023-03-10T22:53:03.101Z,2.50
2023-03-10T22:55:35.178Z,2.50
2023-03-10T22:58:07.234Z,2.40
2023-03-10T23:00:35.254Z,2.40
2023-03-10T23:03:04.825Z,2.40
2023-03-10T23:05:32.153Z,2.40
2023-03-10T23:08:00.346Z,2.40
2023-03-10T23:10:31.470Z,2.40
2023-03-10T23:13:04.320Z,2.40
2023-03-10T23:15:35.123Z,2.40
2023-03-10T23:18:02.382Z,2.40
2023-03-10T23:20:43.357Z,2.40
2023-03-10T23:23:14.693Z,2.50
2023-03-10T23:25:47.268Z,2.50
2023-03-10T23:28:15.648Z,2.40
2023-03-10T23:30:44.659Z,2.40
2023-03-10T23:33:16.419Z,2.40
2023-03-10T23:35:44.036Z,2.40
2023-03-10T23:38:11.126Z,2.30
2023-03-10T23:40:38.489Z,2.30
2023-03-10T23:43:08.722Z,2.30
2023-03-10T23:45:38.409Z,2.10
2023-03-10T23:48:08.809Z,2.00
2023-03-10T23:50:39.808Z,1.90
2023-03-10T23:53:09.903Z,1.80
2023-03-10T23:55:41.290Z,1.70
2023-03-10T23:58:08.509Z,1.70
